Cragford, AL (36255)

1:18 AM CST on March 04, 2015 (GMT -0600)
Pine Grove | Change Station
CLOSE
Current Station
Personal Weather Station
Location: Lineville, AL
Elevation: 1076 ft
Nearby Weather Stations

Elev 1076 ft 33.32 °N, 85.66 °W | Updated 6 seconds ago

Partly Cloudy
Partly Cloudy
61.5 °F
Feels Like 61.5 °F
N
5.4
Wind Variable Wind from South
Gusts 7.0 mph

Today
High -- | Low -- °F
--% Chance of Precip.
Yesterday
High -- | Low -- °F
Precip. -- in
6:07 AM 5:41 PM
Waxing Gibbous, 98% visible
Pressure 30.05 in
Visibility 10.0 miles
Clouds Mostly Cloudy 5000 ft
Dew Point 61 °F
Humidity 99%
Rainfall 0.00 in
Snow Depth Not available.
UV 0 out of 12
Pollen 5.30 out of 12
Air Quality Not available.
Flu Activity Not available.
METAR KALX 040655Z AUTO 19004KT 10SM BKN050 20/17 A3005 RMK AO2 T01990170

More Conditions Fewer Conditions

Pressure 30.05 in
Visibility 10.0 miles
Clouds Mostly Cloudy 5000 ft
Dew Point 61 °F
Humidity 99%
Rainfall 0.00 in
Snow Depth Not available.
UV 0 out of 12
Pollen 5.30 out of 12
Air Quality Not available.
Flu Activity Not available.
METAR KALX 040655Z AUTO 19004KT 10SM BKN050 20/17 A3005 RMK AO2 T01990170

More Conditions Fewer Conditions

10-Day Weather Forecast

Almanac

Astronomy

Mar. 04, 2015 Rise Set
Actual Time
Civil Twilight
Nautical Twilight
Astronomical Twilight
Moon
Length of Visible Light
Length of Day
Tomorrow will be .
, % of the Moon is Illuminated

Today's Extremes

State Highs State Lows

Community

WunderPhotos

Upload Photos

1,802,402 photos uploaded!

WunderBlogs® & News

Nearby

Air Quality

  Air Quality AQ Index Pollutant
Not available.

Snow Depth

Station Depth Elevation

Earthquake Activity

City Distance Mag. Time & Date
Minimum magnitude displayed is 2.5.

Coastal Water Temperatures

Place Temperature

Nearby Weather Stations